Time;durP1;ratioP1;P1;durP2;ratioP2;P2;SDS_P1;SDS_P2;PMS_P1;PMS_P2;Temp;Humidity;BMP_temperature;BMP_pressure;BME280_temperature;BME280_humidity;BME280_pressure;Samples;Min_cycle;Max_cycle;Signal;HPM_P1;HPM_P2
2022/01/13 00:02:01;;;;;;;67.67;28.95;;;;;;;-7.32;71.90;102350.52;1383876;91;21347;-82
2022/01/13 00:04:27;;;;;;;77.67;32.53;;;;;;;-7.31;71.88;102347.97;1372681;91;21489;-82
2022/01/13 00:06:55;;;;;;;64.70;29.82;;;;;;;-7.27;71.75;102352.70;1382110;92;21483;-84
2022/01/13 00:09:22;;;;;;;57.48;26.48;;;;;;;-7.22;71.54;102361.73;1395672;92;22266;-84
2022/01/13 00:11:51;;;;;;;66.55;32.33;;;;;;;-7.19;71.40;102360.07;1385583;91;21495;-83
2022/01/13 00:22:26;;;;;;;58.83;28.17;;;;;;;-7.06;71.32;102343.00;1352932;93;21365;-82
2022/01/13 00:24:54;;;;;;;60.17;24.80;;;;;;;-7.06;71.51;102352.00;1357428;93;21395;-82
2022/01/13 00:27:21;;;;;;;64.00;29.57;;;;;;;-7.13;71.36;102365.27;1368290;94;22430;-82
2022/01/13 00:29:48;;;;;;;73.97;30.75;;;;;;;-7.20;71.02;102366.05;1373804;93;21400;-83
2022/01/13 00:32:17;;;;;;;77.08;33.92;;;;;;;-7.28;70.98;102371.55;1378698;92;21480;-82
2022/01/13 00:34:44;;;;;;;88.87;35.35;;;;;;;-7.41;71.16;102370.59;1397719;92;21498;-83
2022/01/13 00:37:12;;;;;;;78.12;32.13;;;;;;;-7.47;70.95;102372.25;1407563;92;21412;-83
2022/01/13 00:39:39;;;;;;;80.65;34.80;;;;;;;-7.54;71.44;102379.02;1408094;92;21570;-82
2022/01/13 00:42:08;;;;;;;85.00;37.60;;;;;;;-7.61;71.52;102383.26;1395347;91;22340;-82
2022/01/13 00:44:37;;;;;;;84.17;36.42;;;;;;;-7.63;71.72;102389.23;1321807;93;21355;-83
2022/01/13 00:47:09;;;;;;;72.47;30.48;;;;;;;-7.61;71.38;102386.26;1361488;92;22362;-83
2022/01/13 00:49:36;;;;;;;74.07;31.05;;;;;;;-7.64;71.17;102366.52;1375490;92;21398;-83
2022/01/13 00:52:05;;;;;;;70.37;30.97;;;;;;;-7.68;72.10;102380.59;1377392;93;21496;-83
2022/01/13 00:54:34;;;;;;;67.03;30.92;;;;;;;-7.70;71.57;102372.03;1371366;93;21431;-83
2022/01/13 00:57:01;;;;;;;65.52;29.45;;;;;;;-7.68;71.35;102378.02;1392236;93;21451;-83
2022/01/13 00:59:29;;;;;;;72.40;31.48;;;;;;;-7.67;71.59;102384.91;1375668;93;21331;-84
2022/01/13 01:01:56;;;;;;;72.95;31.17;;;;;;;-7.68;72.18;102385.73;1389385;93;21365;-85
2022/01/13 01:04:24;;;;;;;69.35;30.95;;;;;;;-7.70;72.21;102392.17;1387135;93;21366;-84
2022/01/13 01:06:51;;;;;;;62.25;30.27;;;;;;;-7.67;72.08;102384.91;1373452;92;21372;-86
2022/01/13 01:09:34;;;;;;;62.78;26.75;;;;;;;-7.63;71.72;102387.52;1357254;92;22378;-83
2022/01/13 01:11:53;;;;;;;57.45;25.45;;;;;;;-7.58;71.74;102381.14;1329100;92;21414;-83
2022/01/13 01:14:20;;;;;;;57.15;27.50;;;;;;;-7.52;72.09;102367.91;1337515;92;22445;-82
2022/01/13 01:16:47;;;;;;;58.33;25.75;;;;;;;-7.46;72.63;102376.11;1363369;92;21381;-82
2022/01/13 01:19:24;;;;;;;68.42;31.40;;;;;;;-7.41;72.74;102380.88;1353363;92;21376;-82
2022/01/13 01:26:59;;;;;;;134.30;55.23;;;;;;;-7.26;73.31;102392.59;1341619;93;21413;-83
2022/01/13 01:31:54;;;;;;;90.65;38.60;;;;;;;-7.13;73.92;102392.28;1353235;93;21391;-82
2022/01/13 01:34:40;;;;;;;122.90;53.15;;;;;;;-7.04;73.77;102394.07;1368059;92;21583;-82
2022/01/13 01:36:56;;;;;;;57.30;28.27;;;;;;;-6.93;73.81;102397.59;1386558;92;22483;-83
2022/01/13 01:39:25;;;;;;;65.52;29.40;;;;;;;-6.86;73.37;102403.21;1386162;92;21615;-83
2022/01/13 01:41:56;;;;;;;60.05;26.35;;;;;;;-6.76;73.12;102399.01;1392549;92;23453;-82
2022/01/13 01:44:34;;;;;;;66.33;29.63;;;;;;;-6.71;73.52;102402.88;1371445;92;21583;-85
2022/01/13 01:47:00;;;;;;;61.58;30.52;;;;;;;-6.65;73.33;102402.92;1350686;95;21554;-84
2022/01/13 01:49:31;;;;;;;62.35;28.65;;;;;;;-6.56;73.37;102411.98;1344432;95;22090;-83
2022/01/13 01:52:01;;;;;;;68.15;31.75;;;;;;;-6.47;73.18;102413.75;1390875;92;22499;-83
2022/01/13 01:54:29;;;;;;;62.33;29.27;;;;;;;-6.38;73.26;102415.12;1420072;93;22589;-83
2022/01/13 01:56:56;;;;;;;67.00;31.65;;;;;;;-6.27;73.17;102414.76;1416442;94;21414;-83
2022/01/13 01:59:29;;;;;;;69.80;31.68;;;;;;;-6.17;72.92;102410.50;1370640;93;22375;-83
2022/01/13 02:01:55;;;;;;;61.33;30.97;;;;;;;-6.09;73.05;102415.27;1368329;93;21368;-84
2022/01/13 02:04:25;;;;;;;68.57;31.77;;;;;;;-6.01;73.20;102411.02;1377720;92;21418;-83
2022/01/13 02:06:55;;;;;;;65.90;30.45;;;;;;;-5.91;72.87;102411.43;1399373;92;21443;-84
2022/01/13 02:09:23;;;;;;;60.30;31.02;;;;;;;-5.86;73.04;102413.19;1312427;94;22278;-84
2022/01/13 02:11:55;;;;;;;62.73;28.52;;;;;;;-5.84;72.36;102412.73;1292542;97;21490;-83
2022/01/13 02:17:10;;;;;;;67.92;32.33;;;;;;;-5.76;72.86;102408.47;1333811;94;21470;-81
2022/01/13 02:19:41;;;;;;;60.70;30.32;;;;;;;-5.71;72.55;102410.64;1315505;94;21535;-82
2022/01/13 02:22:08;;;;;;;;;;;;;;;-5.61;72.68;102407.25;1322281;94;21384;-83
2022/01/13 02:24:36;;;;;;;64.65;31.40;;;;;;;-5.50;72.65;102400.80;1338210;94;21085;-82
2022/01/13 02:27:05;;;;;;;64.92;30.50;;;;;;;-5.45;72.33;102394.78;1390068;92;22769;-82
2022/01/13 02:29:34;;;;;;;70.22;34.45;;;;;;;-5.38;72.16;102392.20;1390753;92;21364;-84
2022/01/13 02:32:04;;;;;;;71.50;32.65;;;;;;;-5.33;72.35;102404.70;1398619;91;22376;-83
2022/01/13 02:34:31;;;;;;;69.35;32.33;;;;;;;-5.29;72.10;102398.27;1407063;91;21333;-83
2022/01/13 02:36:59;;;;;;;72.80;32.10;;;;;;;-5.27;72.16;102402.12;1420004;92;21341;-82
2022/01/13 02:39:28;;;;;;;63.23;29.05;;;;;;;-5.22;71.95;102397.83;1390668;91;21621;-83
2022/01/13 02:41:57;;;;;;;64.47;31.27;;;;;;;-5.17;71.83;102387.08;1353111;92;22295;-85
2022/01/13 02:44:25;;;;;;;71.50;33.40;;;;;;;-5.12;71.88;102394.41;1342391;91;21370;-85
2022/01/13 02:47:07;;;;;;;60.17;29.65;;;;;;;-5.10;71.81;102399.11;1367425;92;21441;-84
2022/01/13 02:49:24;;;;;;;68.33;33.20;;;;;;;-5.11;71.38;102406.44;1379445;92;21630;-84
2022/01/13 02:51:53;;;;;;;68.02;30.55;;;;;;;-5.08;71.42;102403.00;1355589;93;23641;-85
2022/01/13 02:54:22;;;;;;;65.60;30.72;;;;;;;-5.05;71.60;102411.60;1384784;93;21585;-85
2022/01/13 02:56:49;;;;;;;76.45;34.33;;;;;;;-5.05;71.26;102412.89;1383204;93;21472;-83
2022/01/13 02:59:16;;;;;;;73.65;33.83;;;;;;;-5.02;71.62;102420.64;1387490;92;21553;-84
2022/01/13 03:01:44;;;;;;;72.72;32.50;;;;;;;-5.00;71.50;102421.52;1382391;92;23030;-84
2022/01/13 03:04:11;;;;;;;72.72;33.67;;;;;;;-4.92;71.57;102419.34;1383458;91;21589;-85
2022/01/13 03:06:40;;;;;;;64.45;31.82;;;;;;;-4.83;71.65;102419.37;1389838;93;21475;-84
2022/01/13 03:09:13;;;;;;;97.47;33.50;;;;;;;-4.76;71.54;102423.66;1380397;92;22495;-85
2022/01/13 03:11:43;;;;;;;66.35;28.35;;;;;;;-4.70;71.60;102427.52;1342418;94;21555;-84
2022/01/13 03:14:12;;;;;;;62.65;31.60;;;;;;;-4.75;71.51;102420.20;1372501;93;21582;-82
2022/01/13 03:16:41;;;;;;;68.78;31.42;;;;;;;-4.76;71.14;102427.09;1313542;94;21340;-82
2022/01/13 03:19:10;;;;;;;68.20;32.98;;;;;;;-4.72;71.15;102424.50;1379633;93;21545;-82
2022/01/13 03:21:38;;;;;;;60.00;28.32;;;;;;;-4.70;70.75;102411.16;1407127;91;21488;-83
2022/01/13 03:24:09;;;;;;;63.40;31.05;;;;;;;-4.69;70.62;102411.17;1402688;91;21541;-84
2022/01/13 03:26:37;;;;;;;62.40;29.05;;;;;;;-4.70;70.39;102406.84;1395199;92;21546;-84
2022/01/13 03:29:15;;;;;;;61.95;31.70;;;;;;;-4.71;70.38;102400.41;1385994;90;22765;-84
2022/01/13 03:31:34;;;;;;;64.53;32.25;;;;;;;-4.72;70.38;102413.73;1402017;90;21470;-82
2022/01/13 03:34:02;;;;;;;68.67;31.85;;;;;;;-4.75;70.23;102404.69;1404648;90;21647;-83
2022/01/13 03:36:29;;;;;;;68.62;32.25;;;;;;;-4.77;70.21;102404.72;1390730;91;21453;-83
2022/01/13 03:38:56;;;;;;;71.00;35.38;;;;;;;-4.82;70.27;102412.89;1352805;94;21704;-83
2022/01/13 03:41:24;;;;;;;67.90;32.25;;;;;;;-4.87;70.39;102402.13;1365192;94;21427;-84
2022/01/13 03:43:53;;;;;;;66.77;32.78;;;;;;;-4.90;70.58;102391.36;1353347;93;21509;-85
2022/01/13 03:46:21;;;;;;;68.52;33.78;;;;;;;-4.93;70.66;102386.64;1388565;93;21504;-85
2022/01/13 03:48:48;;;;;;;68.42;31.75;;;;;;;-4.96;70.69;102382.77;1384118;92;21456;-85
2022/01/13 03:51:15;;;;;;;61.95;29.35;;;;;;;-5.01;70.60;102377.16;1388595;93;21627;-85
2022/01/13 03:54:22;;;;;;;68.05;32.78;;;;;;;-5.03;70.57;102390.53;1367251;92;21465;-86
2022/01/13 03:57:15;;;;;;;64.03;30.97;;;;;;;-5.10;70.67;102387.50;1400606;90;21555;-81
2022/01/13 03:59:56;;;;;;;71.53;35.25;;;;;;;-5.17;70.46;102395.27;1395911;91;21444;-81
2022/01/13 04:02:23;;;;;;;75.20;32.38;;;;;;;-5.28;70.92;102375.88;1396693;90;21585;-82
2022/01/13 04:04:50;;;;;;;103.70;45.17;;;;;;;-5.30;70.71;102360.81;1398655;90;21465;-81
2022/01/13 04:07:21;;;;;;;111.57;44.95;;;;;;;-5.39;71.26;102351.78;1394795;93;21444;-82
2022/01/13 04:09:52;;;;;;;;;;;;;;;-5.46;71.22;102377.59;1391109;93;21467;-82
2022/01/13 04:12:22;;;;;;;87.33;41.37;;;;;;;-5.49;71.47;102359.52;1384749;93;20310;-85
2022/01/13 04:14:54;;;;;;;77.90;34.33;;;;;;;-5.52;71.49;102364.69;1389280;92;21585;-84
2022/01/13 04:17:21;;;;;;;;;;;;;;;-5.55;71.79;102363.80;1404381;92;22838;-84
2022/01/13 04:19:49;;;;;;;66.00;31.70;;;;;;;-5.64;71.93;102358.19;1395647;91;20282;-82
2022/01/13 04:22:17;;;;;;;75.17;32.65;;;;;;;-5.72;72.27;102339.28;1392060;92;23049;-81
2022/01/13 04:24:49;;;;;;;76.05;35.40;;;;;;;-5.76;71.90;102356.45;1402336;91;22588;-81
2022/01/13 04:27:24;;;;;;;81.85;36.23;;;;;;;-5.78;72.40;102363.75;1394159;92;21682;-81
2022/01/13 04:31:00;;;;;;;80.10;35.45;;;;;;;-5.84;73.00;102365.03;1356281;93;22470;-81
2022/01/13 04:32:29;;;;;;;77.70;34.48;;;;;;;-5.85;73.09;102371.05;1378159;92;21426;-81
2022/01/13 04:34:57;;;;;;;78.35;37.80;;;;;;;-5.86;73.00;102380.95;1408484;91;21545;-82
2022/01/13 04:37:24;;;;;;;81.72;39.83;;;;;;;-5.85;73.18;102392.97;1398265;91;21553;-82
2022/01/13 04:39:51;;;;;;;90.83;40.60;;;;;;;-5.87;73.61;102410.16;1385585;92;22594;-81
2022/01/13 04:42:18;;;;;;;92.40;39.78;;;;;;;-5.84;73.25;102414.92;1398203;91;21563;-81
2022/01/13 04:44:46;;;;;;;83.58;39.58;;;;;;;-5.80;73.30;102430.82;1395624;92;21618;-81
2022/01/13 04:47:13;;;;;;;81.32;38.42;;;;;;;-5.75;73.04;102442.45;1398113;91;21452;-81
2022/01/13 04:49:40;;;;;;;93.75;41.33;;;;;;;-5.69;72.88;102446.34;1392515;91;22470;-81
2022/01/13 04:52:07;;;;;;;82.90;39.60;;;;;;;-5.64;72.64;102456.66;1379917;92;21414;-82
2022/01/13 04:54:34;;;;;;;87.97;41.70;;;;;;;-5.62;72.75;102439.04;1397197;91;22333;-82
2022/01/13 04:57:16;;;;;;;82.20;38.83;;;;;;;-5.59;72.90;102432.59;1401055;91;21646;-82
2022/01/13 04:59:37;;;;;;;86.05;38.63;;;;;;;-5.56;72.74;102442.92;1396462;92;21438;-83
2022/01/13 05:02:04;;;;;;;89.45;41.13;;;;;;;-5.53;72.78;102431.32;1382698;92;21574;-82
2022/01/13 05:04:33;;;;;;;78.45;38.75;;;;;;;-5.57;73.14;102438.63;1398981;90;21678;-82
2022/01/13 05:07:00;;;;;;;78.97;40.08;;;;;;;-5.56;72.95;102440.34;1393207;91;21466;-82
2022/01/13 05:09:27;;;;;;;72.78;36.55;;;;;;;-5.56;72.92;102450.66;1394131;92;22631;-82
2022/01/13 05:11:55;;;;;;;78.45;38.63;;;;;;;-5.56;73.09;102462.71;1399232;91;21614;-82
2022/01/13 05:14:22;;;;;;;83.92;36.93;;;;;;;-5.54;73.29;102467.02;1401204;92;21597;-82
2022/01/13 05:19:33;;;;;;;82.47;38.38;;;;;;;-5.67;73.32;102467.42;1400726;91;21679;-82
2022/01/13 05:24:27;;;;;;;86.20;39.88;;;;;;;-5.67;73.71;102484.59;1389731;91;21415;-81
2022/01/13 05:26:54;;;;;;;87.20;40.88;;;;;;;-5.63;73.64;102476.03;1396504;91;21464;-82
2022/01/13 05:29:21;;;;;;;117.28;61.92;;;;;;;-5.60;73.57;102459.27;1377643;92;21479;-82
2022/01/13 05:31:50;;;;;;;106.22;55.05;;;;;;;-5.58;73.44;102456.27;1397041;93;21392;-82
2022/01/13 05:34:18;;;;;;;86.75;41.18;;;;;;;-5.57;73.30;102459.27;1393005;92;21560;-82
2022/01/13 05:36:45;;;;;;;80.62;38.02;;;;;;;-5.55;73.31;102445.07;1377759;92;22446;-82
2022/01/13 05:39:12;;;;;;;83.58;36.30;;;;;;;-5.55;73.25;102448.54;1384523;92;21409;-82
2022/01/13 05:41:40;;;;;;;71.72;35.70;;;;;;;-5.53;73.08;102448.09;1392166;91;22549;-81
2022/01/13 05:44:07;;;;;;;111.52;51.90;;;;;;;-5.50;73.06;102439.50;1394515;93;21469;-81
2022/01/13 05:46:34;;;;;;;108.90;51.20;;;;;;;-5.48;73.18;102446.83;1393355;93;21407;-82
2022/01/13 05:49:01;;;;;;;144.82;70.47;;;;;;;-5.48;73.01;102437.36;1388447;92;21594;-81
2022/01/13 05:51:29;;;;;;;106.25;48.30;;;;;;;-5.51;73.11;102443.80;1393973;92;21604;-82
2022/01/13 05:53:56;;;;;;;81.00;39.13;;;;;;;-5.51;73.08;102436.06;1394132;91;21460;-82
2022/01/13 05:56:24;;;;;;;74.05;33.65;;;;;;;-5.53;73.40;102430.03;1401681;90;21497;-81
2022/01/13 05:58:51;;;;;;;74.07;36.15;;;;;;;-5.56;73.36;102421.42;1399956;91;21468;-81
2022/01/13 06:01:19;;;;;;;78.45;37.28;;;;;;;-5.59;73.64;102408.52;1405324;91;21581;-82
2022/01/13 06:03:46;;;;;;;88.52;37.75;;;;;;;-5.60;73.56;102397.78;1389017;91;21770;-83
2022/01/13 06:06:13;;;;;;;85.07;38.58;;;;;;;-5.66;74.00;102393.47;1403335;91;21935;-83
2022/01/13 06:08:40;;;;;;;99.58;42.60;;;;;;;-5.67;73.85;102390.03;1398220;92;21405;-83
2022/01/13 06:11:07;;;;;;;84.80;38.73;;;;;;;-5.73;74.44;102380.11;1368242;93;21439;-83
2022/01/13 06:13:35;;;;;;;78.17;36.23;;;;;;;-5.76;74.45;102381.39;1357361;93;21399;-84
2022/01/13 06:16:03;;;;;;;89.17;41.88;;;;;;;-5.76;74.19;102386.55;1386529;91;21468;-82
2022/01/13 06:18:30;;;;;;;96.10;43.87;;;;;;;-5.73;74.39;102388.70;1382751;92;21496;-82
2022/01/13 06:20:57;;;;;;;89.28;41.77;;;;;;;-5.72;74.49;102398.61;1383361;92;21464;-82
2022/01/13 06:23:24;;;;;;;85.35;41.50;;;;;;;-5.70;74.52;102414.94;1390979;91;21608;-83
2022/01/13 06:25:51;;;;;;;94.35;42.80;;;;;;;-5.72;74.25;102424.41;1387402;92;22325;-83
2022/01/13 06:28:19;;;;;;;92.05;41.60;;;;;;;-5.75;74.13;102441.17;1391720;91;21466;-83
2022/01/13 06:30:47;;;;;;;94.00;43.78;;;;;;;-5.75;74.04;102446.33;1389084;91;22392;-84
2022/01/13 06:33:14;;;;;;;88.05;42.98;;;;;;;-5.74;73.98;102459.64;1387791;91;21432;-83
2022/01/13 06:35:41;;;;;;;93.70;42.30;;;;;;;-5.73;74.12;102444.59;1374374;92;21571;-82
2022/01/13 06:38:09;;;;;;;87.22;39.35;;;;;;;-5.67;73.92;102451.05;1380766;93;21432;-81
2022/01/13 06:40:36;;;;;;;87.50;41.77;;;;;;;-5.60;73.87;102454.55;1347378;94;22010;-81
2022/01/13 06:43:03;;;;;;;82.97;41.05;;;;;;;-5.56;73.54;102452.39;1344936;94;21558;-84
2022/01/13 06:45:31;;;;;;;93.75;43.08;;;;;;;-5.57;73.62;102441.22;1380478;92;21460;-82
2022/01/13 06:47:58;;;;;;;88.75;45.35;;;;;;;-5.47;74.87;102427.49;1392096;92;23894;-81
2022/01/13 06:50:26;;;;;;;98.82;47.70;;;;;;;-5.44;74.35;102425.31;1387507;92;22079;-82
2022/01/13 06:52:54;;;;;;;97.70;44.93;;;;;;;-5.39;73.98;102424.05;1390798;92;22346;-83
2022/01/13 06:55:22;;;;;;;88.03;39.15;;;;;;;-5.31;73.81;102426.22;1379446;92;21451;-84
2022/01/13 06:57:49;;;;;;;88.03;40.83;;;;;;;-5.32;73.11;102430.92;1363222;93;22465;-84
2022/01/13 07:00:16;;;;;;;94.15;41.98;;;;;;;-5.31;72.96;102445.58;1393367;92;21553;-84
2022/01/13 07:02:43;;;;;;;86.80;42.25;;;;;;;-5.34;72.76;102448.16;1351124;95;21401;-84
2022/01/13 07:05:11;;;;;;;73.15;35.17;;;;;;;-5.33;72.87;102451.16;1389018;92;22033;-84
2022/01/13 07:07:40;;;;;;;84.22;40.00;;;;;;;-5.32;72.53;102447.70;1399705;92;21400;-84
2022/01/13 07:10:11;;;;;;;87.75;42.67;;;;;;;-5.28;72.68;102463.65;1369669;93;22402;-84
2022/01/13 07:12:41;;;;;;;83.15;36.90;;;;;;;-5.23;72.70;102454.20;1361818;94;21584;-83
2022/01/13 07:15:11;;;;;;;86.78;38.83;;;;;;;-5.20;72.27;102449.48;1384343;92;21957;-83
2022/01/13 07:17:39;;;;;;;81.85;42.75;;;;;;;-5.18;72.17;102443.42;1392872;92;21357;-81
2022/01/13 07:20:07;;;;;;;96.47;42.13;;;;;;;-5.15;72.18;102448.62;1376149;93;21656;-82
2022/01/13 07:22:37;;;;;;;84.70;42.60;;;;;;;-5.14;72.01;102460.66;1389148;92;21467;-82
2022/01/13 07:25:11;;;;;;;84.80;38.90;;;;;;;-5.13;71.71;102459.80;1379899;93;21442;-82
2022/01/13 07:27:40;;;;;;;82.40;40.28;;;;;;;-5.14;71.67;102466.27;1391648;92;21436;-83
2022/01/13 07:30:09;;;;;;;81.28;39.78;;;;;;;-5.11;71.71;102473.58;1374128;93;21465;-83
2022/01/13 07:32:38;;;;;;;81.80;38.58;;;;;;;-5.05;71.83;102461.11;1383099;93;21619;-82
2022/01/13 07:35:07;;;;;;;86.90;43.17;;;;;;;-5.02;71.50;102461.96;1382729;92;21613;-82
2022/01/13 07:37:34;;;;;;;79.30;42.05;;;;;;;-5.01;71.51;102466.25;1388050;92;21522;-84
2022/01/13 07:40:03;;;;;;;90.30;42.03;;;;;;;-4.93;71.38;102479.62;1380989;93;21618;-82
2022/01/13 07:42:31;;;;;;;73.35;34.67;;;;;;;-4.92;71.23;102480.93;1384041;94;22538;-83
2022/01/13 07:44:58;;;;;;;82.88;41.33;;;;;;;-4.93;70.87;102478.33;1392056;94;21388;-82
2022/01/13 07:47:26;;;;;;;89.05;39.92;;;;;;;-4.91;70.91;102482.64;1429852;92;21389;-83
2022/01/13 07:49:54;;;;;;;95.22;41.77;;;;;;;-4.92;70.83;102477.45;1403390;92;21317;-82
2022/01/13 07:52:21;;;;;;;92.08;44.35;;;;;;;-4.84;70.97;102471.88;1390027;92;21478;-83
2022/01/13 07:54:48;;;;;;;81.57;38.35;;;;;;;-4.74;71.13;102477.48;1360946;92;21287;-83
2022/01/13 07:57:15;;;;;;;80.83;39.33;;;;;;;-4.62;70.35;102481.78;1353215;91;21457;-82
2022/01/13 07:59:45;;;;;;;81.12;39.85;;;;;;;-4.55;69.76;102478.32;1338629;92;22533;-83
2022/01/13 08:02:12;;;;;;;77.08;37.58;;;;;;;-4.48;69.94;102483.08;1351208;92;21295;-82
2022/01/13 08:04:39;;;;;;;72.60;34.60;;;;;;;-4.41;69.48;102493.83;1357885;90;21511;-82
2022/01/13 08:07:07;;;;;;;79.53;36.45;;;;;;;-4.45;68.92;102499.88;1326932;93;21318;-83
2022/01/13 08:09:34;;;;;;;72.55;35.23;;;;;;;-4.43;69.11;102504.59;1314319;93;21346;-83
2022/01/13 08:12:01;;;;;;;76.47;36.98;;;;;;;-4.43;69.11;102504.59;1334774;91;22526;-79
2022/01/13 08:14:29;;;;;;;77.35;38.00;;;;;;;-4.46;68.02;102508.47;1340506;92;21439;-80
2022/01/13 08:16:59;;;;;;;75.28;36.38;;;;;;;-4.48;68.44;102511.51;1356279;91;21309;-80
2022/01/13 08:20:25;;;;;;;81.05;38.40;;;;;;;-4.49;68.40;102506.74;1360784;92;22456;-80
2022/01/13 08:22:03;;;;;;;87.15;38.92;;;;;;;-4.47;68.23;102509.34;1333445;92;21495;-80
2022/01/13 08:24:31;;;;;;;77.55;38.30;;;;;;;-4.46;68.57;102508.06;1380198;92;21440;-80
2022/01/13 08:26:58;;;;;;;73.87;36.42;;;;;;;-4.48;68.18;102517.97;1377986;92;21474;-80
2022/01/13 08:29:25;;;;;;;74.80;39.95;;;;;;;-4.54;68.04;102514.52;1366009;91;21398;-80
2022/01/13 08:31:53;;;;;;;88.87;38.55;;;;;;;-4.50;68.35;102535.19;1388374;91;21323;-80
2022/01/13 08:34:20;;;;;;;79.90;39.30;;;;;;;-4.45;68.66;102543.81;1377905;92;21587;-81
2022/01/13 08:36:47;;;;;;;83.97;42.85;;;;;;;-4.36;68.38;102548.98;1374804;92;21381;-81
2022/01/13 08:39:14;;;;;;;81.12;41.40;;;;;;;-4.27;68.16;102556.72;1391534;92;21506;-81
2022/01/13 08:41:42;;;;;;;85.22;39.73;;;;;;;-4.23;67.55;102568.80;1362398;91;21462;-81
2022/01/13 08:44:10;;;;;;;77.12;37.40;;;;;;;-4.21;67.55;102567.05;1408187;91;21454;-81
2022/01/13 08:46:39;;;;;;;78.33;39.60;;;;;;;-4.17;67.20;102558.45;1385470;91;22884;-81
2022/01/13 08:49:06;;;;;;;73.07;36.45;;;;;;;-4.13;67.37;102558.01;1393676;92;21436;-82
2022/01/13 08:51:33;;;;;;;82.55;41.50;;;;;;;-4.06;67.48;102567.91;1395185;92;22570;-82
2022/01/13 08:54:00;;;;;;;85.72;38.90;;;;;;;-4.00;67.11;102575.66;1402552;92;21384;-82
2022/01/13 08:56:28;;;;;;;85.60;40.88;;;;;;;-3.94;67.04;102582.11;1405238;91;21697;-81
2022/01/13 08:58:55;;;;;;;83.42;40.73;;;;;;;-3.80;67.06;102592.00;1399894;92;21556;-82
2022/01/13 09:01:22;;;;;;;78.33;37.13;;;;;;;-3.68;66.72;102583.38;1405732;92;22429;-81
2022/01/13 09:03:50;;;;;;;76.40;37.60;;;;;;;-3.59;66.43;102575.58;1395540;92;21631;-82
2022/01/13 09:06:17;;;;;;;81.57;37.78;;;;;;;-3.58;65.62;102568.67;1402933;91;22376;-82
2022/01/13 09:08:44;;;;;;;75.78;36.93;;;;;;;-3.55;65.60;102559.59;1401761;91;21419;-82
2022/01/13 09:11:21;;;;;;;80.65;40.40;;;;;;;-3.52;65.55;102545.35;1411242;91;22396;-82
2022/01/13 09:13:55;;;;;;;83.40;39.25;;;;;;;-3.45;65.13;102543.18;1405224;90;21571;-82
2022/01/13 09:16:18;;;;;;;82.05;39.95;;;;;;;-3.43;64.96;102529.77;1415025;90;21773;-81
2022/01/13 09:21:16;;;;;;;79.82;39.85;;;;;;;-3.40;64.73;102509.89;1391208;92;22514;-82
2022/01/13 09:23:43;;;;;;;75.35;36.48;;;;;;;-3.34;64.74;102507.71;1379277;93;23517;-81
2022/01/13 09:26:10;;;;;;;82.55;41.92;;;;;;;-3.40;64.30;102503.42;1389797;90;21503;-81
2022/01/13 09:28:37;;;;;;;88.05;42.17;;;;;;;-3.40;64.38;102488.33;1412484;90;21636;-83
2022/01/13 09:31:05;;;;;;;108.15;47.73;;;;;;;-3.28;64.96;102485.69;1409628;90;21444;-85
2022/01/13 09:33:33;;;;;;;88.75;41.63;;;;;;;-3.18;64.36;102483.45;1409564;90;22831;-85
2022/01/13 09:36:03;;;;;;;75.92;38.48;;;;;;;-3.05;64.18;102482.96;1396350;92;21463;-85
2022/01/13 09:38:30;;;;;;;83.47;41.70;;;;;;;-3.00;63.17;102477.73;1392408;91;21406;-85
2022/01/13 09:40:57;;;;;;;75.55;36.25;;;;;;;-2.93;64.00;102469.05;1409818;90;22516;-85
2022/01/13 09:43:27;;;;;;;75.52;38.80;;;;;;;-2.81;64.21;102465.06;1363835;94;21495;-84
2022/01/13 09:45:58;;;;;;;76.07;37.42;;;;;;;-2.66;63.13;102465.81;1375519;94;21607;-84
2022/01/13 09:48:30;;;;;;;73.83;39.53;;;;;;;-2.51;63.28;102461.33;1376251;93;21408;-85
2022/01/13 09:50:57;;;;;;;88.92;43.73;;;;;;;-1.97;62.59;102456.89;1383031;93;21710;-83
2022/01/13 09:53:25;;;;;;;78.13;42.17;;;;;;;-1.25;61.04;102450.75;1383323;93;21658;-83
2022/01/13 09:55:52;;;;;;;73.53;40.67;;;;;;;-0.49;59.86;102439.98;1385508;93;21783;-85
2022/01/13 09:58:19;;;;;;;73.30;37.03;;;;;;;0.11;57.85;102434.94;1383584;92;21702;-85
2022/01/13 10:00:47;;;;;;;70.87;39.40;;;;;;;0.47;54.57;102441.58;1414341;91;21897;-83
2022/01/13 10:03:26;;;;;;;68.17;36.37;;;;;;;0.64;54.12;102427.73;1421776;90;21808;-82
2022/01/13 10:06:00;;;;;;;66.43;36.53;;;;;;;0.76;54.03;102426.58;1417210;90;21766;-83
2022/01/13 10:08:53;;;;;;;64.57;37.87;;;;;;;0.94;53.60;102426.59;1406624;91;21768;-85
2022/01/13 10:11:44;;;;;;;61.50;33.10;;;;;;;1.42;51.96;102415.83;1413778;91;22300;-85
2022/01/13 10:19:43;;;;;;;64.97;37.00;;;;;;;1.84;51.51;102430.77;1405206;91;22222;-82
2022/01/13 10:22:23;;;;;;;66.20;36.73;;;;;;;1.89;50.45;102429.34;1414735;90;22372;-83
2022/01/13 10:24:52;;;;;;;67.63;36.87;;;;;;;1.87;50.43;102430.70;1403031;91;22279;-82
2022/01/13 10:27:30;;;;;;;61.33;36.60;;;;;;;1.82;49.78;102429.13;1397925;91;22084;-82
2022/01/13 10:30:02;;;;;;;64.23;37.03;;;;;;;1.79;51.17;102431.36;1412914;91;22306;-84
2022/01/13 10:32:38;;;;;;;63.57;35.63;;;;;;;1.92;51.18;102429.25;1405772;90;22283;-84
2022/01/13 10:35:14;;;;;;;71.60;37.90;;;;;;;1.98;50.24;102434.30;1407800;90;22109;-83
2022/01/13 10:37:56;;;;;;;65.30;38.13;;;;;;;2.22;51.22;102433.61;1412147;90;23032;-84
2022/01/13 10:40:29;;;;;;;61.83;33.93;;;;;;;2.46;51.74;102439.00;1398261;92;22449;-84
2022/01/13 10:45:52;;;;;;;62.77;36.37;;;;;;;2.73;50.24;102422.05;1423357;90;21547;-84
2022/01/13 10:48:26;;;;;;;63.07;35.90;;;;;;;2.50;48.19;102421.00;1408632;90;23041;-83
2022/01/13 10:51:06;;;;;;;59.83;35.90;;;;;;;2.26;49.18;102410.39;1419313;90;22544;-84
2022/01/13 10:53:42;;;;;;;65.23;37.77;;;;;;;2.28;49.01;102410.36;1397300;90;21512;-84
2022/01/13 10:56:15;;;;;;;70.80;39.57;;;;;;;2.30;49.36;102414.22;1424010;90;21551;-85
2022/01/13 10:58:53;;;;;;;62.33;34.87;;;;;;;2.48;50.29;102418.91;1404718;91;21545;-83
2022/01/13 11:01:20;;;;;;;65.70;36.70;;;;;;;2.50;48.44;102415.77;1407784;90;21655;-80
2022/01/13 11:03:48;;;;;;;61.13;35.13;;;;;;;2.47;49.68;102415.88;1389844;91;21478;-81
2022/01/13 11:06:15;;;;;;;60.57;35.30;;;;;;;2.53;48.96;102399.14;1391338;91;22392;-81
2022/01/13 11:08:46;;;;;;;63.50;36.13;;;;;;;2.73;51.04;102389.37;1418597;90;21493;-80
2022/01/13 11:11:24;;;;;;;;;;;;;;;3.23;51.64;102375.09;1402655;93;22601;-83
2022/01/13 11:14:09;;;;;;;61.90;35.50;;;;;;;3.63;47.50;102377.16;1404851;90;20408;-82
2022/01/13 11:16:34;;;;;;;64.67;35.80;;;;;;;3.75;48.48;102381.09;1421525;90;21596;-83
2022/01/13 11:19:01;;;;;;;62.80;38.03;;;;;;;3.75;47.61;102382.41;1410577;90;21442;-82
2022/01/13 11:21:28;;;;;;;56.33;35.13;;;;;;;3.77;47.88;102375.32;1422933;90;22515;-81
2022/01/13 11:23:58;;;;;;;55.13;33.57;;;;;;;3.82;45.53;102368.16;1415645;90;21582;-83
2022/01/13 11:26:27;;;;;;;55.27;33.43;;;;;;;3.79;46.58;102357.79;1379089;91;21517;-83
2022/01/13 11:28:57;;;;;;;58.43;34.13;;;;;;;3.83;47.35;102359.41;1409807;90;21472;-82
2022/01/13 11:31:24;;;;;;;60.73;35.00;;;;;;;3.74;47.47;102346.62;1414486;90;21478;-81
2022/01/13 11:33:52;;;;;;;55.50;35.20;;;;;;;3.80;46.31;102342.50;1421920;90;22354;-82
2022/01/13 11:36:20;;;;;;;57.33;34.10;;;;;;;3.78;45.54;102333.38;1419697;90;21406;-80
2022/01/13 11:38:57;;;;;;;47.87;29.17;;;;;;;3.78;46.30;102324.20;1419786;90;21473;-82
2022/01/13 11:41:25;;;;;;;62.80;37.40;;;;;;;3.44;44.49;102332.44;1407862;90;21467;-82
2022/01/13 11:43:53;;;;;;;50.57;31.70;;;;;;;3.20;46.20;102325.47;1409962;90;21404;-81
2022/01/13 11:46:24;;;;;;;46.37;27.97;;;;;;;3.28;44.35;102315.56;1391895;93;22411;-81
2022/01/13 11:49:06;;;;;;;52.63;30.17;;;;;;;3.24;45.69;102320.52;1400603;92;21433;-81
2022/01/13 11:51:59;;;;;;;48.87;29.95;;;;;;;2.69;44.30;102309.72;1389084;93;21519;-80
2022/01/13 11:54:33;;;;;;;52.77;32.50;;;;;;;2.52;46.58;102311.19;1397750;93;21428;-80
2022/01/13 11:57:21;;;;;;;59.87;33.50;;;;;;;2.09;46.37;102310.78;1390607;93;21408;-80